createdAt,value
2022-09-25T00:02:10.430Z,98587
2022-09-25T00:07:45.750Z,98584.4
2022-09-25T00:13:20.791Z,98570.9
2022-09-25T00:18:57.123Z,98568.9
2022-09-25T00:24:32.033Z,98570.8
2022-09-25T00:30:54.767Z,98571.4
2022-09-25T00:36:31.055Z,98570.2
2022-09-25T00:42:05.921Z,98566.3
2022-09-25T00:47:41.186Z,98568.2
2022-09-25T00:53:17.131Z,98573.7
2022-09-25T00:58:52.205Z,98574.3
2022-09-25T01:04:27.512Z,98566.9
2022-09-25T01:10:03.591Z,98562.7
2022-09-25T01:15:38.567Z,98556.4
2022-09-25T01:21:15.770Z,98548
2022-09-25T01:26:50.689Z,98546.4
2022-09-25T01:32:25.840Z,98531.9
2022-09-25T01:38:01.113Z,98528
2022-09-25T01:43:38.171Z,98524.3
2022-09-25T01:49:13.437Z,98526.7
2022-09-25T01:54:48.262Z,98524.6
2022-09-25T02:00:24.365Z,98516.3
2022-09-25T02:05:59.058Z,98512.5
2022-09-25T02:11:34.135Z,98511.4
2022-09-25T02:17:09.419Z,98510.3
2022-09-25T02:22:45.591Z,98505.5
2022-09-25T02:28:21.180Z,98500.8
2022-09-25T02:33:56.431Z,98500.1
2022-09-25T02:39:31.467Z,98503.2
2022-09-25T02:45:06.541Z,98502.2
2022-09-25T02:50:41.418Z,98498.5
2022-09-25T02:56:16.365Z,98495.9
2022-09-25T03:01:51.456Z,98498
2022-09-25T03:07:26.754Z,98494.5
2022-09-25T03:13:01.734Z,98498.3
2022-09-25T03:18:36.894Z,98494.6
2022-09-25T03:24:12.343Z,98496.6
2022-09-25T03:29:49.238Z,98494.5
2022-09-25T03:35:24.072Z,98495.4
2022-09-25T03:40:59.792Z,98502.6
2022-09-25T03:46:37.679Z,98501.7
2022-09-25T03:52:14.690Z,98502
2022-09-25T03:57:50.014Z,98494
2022-09-25T04:03:25.119Z,98498.8
2022-09-25T04:09:01.103Z,98490
2022-09-25T04:14:35.921Z,98488
2022-09-25T04:20:10.627Z,98486.8
2022-09-25T04:25:45.501Z,98494.9
2022-09-25T04:31:22.406Z,98502.9
2022-09-25T04:36:58.314Z,98496.5
2022-09-25T04:42:33.583Z,98499.7
2022-09-25T04:48:08.597Z,98497.2
2022-09-25T04:53:44.273Z,98493.5
2022-09-25T04:59:19.095Z,98496.5
2022-09-25T05:04:55.219Z,98501.9
2022-09-25T05:10:30.655Z,98504.5
2022-09-25T05:16:05.786Z,98499
2022-09-25T05:21:41.698Z,98497
2022-09-25T05:27:16.711Z,98487
2022-09-25T05:32:52.182Z,98498.6
2022-09-25T05:38:27.489Z,98501.1
2022-09-25T05:44:02.326Z,98507.4
2022-09-25T05:49:37.446Z,98506.3
2022-09-25T05:55:12.665Z,98497.1
2022-09-25T06:00:47.256Z,98496.2
2022-09-25T06:06:28.152Z,98504
2022-09-25T06:12:04.215Z,98505.3
2022-09-25T06:17:46.678Z,98507.8
2022-09-25T06:23:21.892Z,98511.2
2022-09-25T06:29:04.017Z,98518.8
2022-09-25T06:34:38.947Z,98529.6
2022-09-25T06:40:21.387Z,98536.4
2022-09-25T06:46:05.346Z,98543.4
2022-09-25T06:51:41.016Z,98549.2
2022-09-25T06:57:18.948Z,98552.7
2022-09-25T07:02:58.364Z,98572.6
2022-09-25T07:08:35.555Z,98574.4
2022-09-25T07:14:10.840Z,98578.5
2022-09-25T07:19:48.572Z,98581.9
2022-09-25T07:25:23.570Z,98581.5
2022-09-25T07:31:00.029Z,98577.2
2022-09-25T07:36:35.938Z,98574.7
2022-09-25T07:42:10.899Z,98574.3
2022-09-25T07:47:46.241Z,98569
2022-09-25T07:53:22.245Z,98568.6
2022-09-25T07:58:57.182Z,98566.3
2022-09-25T08:04:32.208Z,98562.9
2022-09-25T08:10:07.251Z,98568.9
2022-09-25T08:15:53.250Z,98572
2022-09-25T08:21:33.312Z,98578.3
2022-09-25T08:27:08.478Z,98583.9
2022-09-25T08:32:47.955Z,98588
2022-09-25T08:38:23.588Z,98591.9
2022-09-25T08:43:58.807Z,98592.9
2022-09-25T08:49:36.575Z,98593.9
2022-09-25T08:55:11.998Z,98595.8
2022-09-25T09:00:47.818Z,98601.3
2022-09-25T09:06:22.937Z,98602.2
2022-09-25T09:11:57.790Z,98603.2
2022-09-25T09:17:33.466Z,98603.3
2022-09-25T09:23:16.019Z,98604
2022-09-25T09:28:51.257Z,98598.5
2022-09-25T09:35:06.958Z,98601
2022-09-25T09:41:28.809Z,98603.9
2022-09-25T09:47:04.937Z,98596.9
2022-09-25T09:52:40.121Z,98601.9
2022-09-25T09:58:15.016Z,98607
2022-09-25T10:03:51.930Z,98599.3
2022-09-25T10:09:27.036Z,98596.1
2022-09-25T10:15:01.976Z,98592.6
2022-09-25T10:20:37.405Z,98588.4
2022-09-25T10:26:12.496Z,98582.4
2022-09-25T10:31:47.654Z,98581.1
2022-09-25T10:37:22.616Z,98577.1
2022-09-25T10:42:57.907Z,98581.3
2022-09-25T10:48:33.251Z,98579.8
2022-09-25T10:54:08.056Z,98578.1
2022-09-25T10:59:44.307Z,98580.9
2022-09-25T11:05:19.417Z,98576.7
2022-09-25T11:10:54.382Z,98571.9
2022-09-25T11:16:29.617Z,98573
2022-09-25T11:22:04.994Z,98573.6
2022-09-25T11:27:40.043Z,98572.7
2022-09-25T11:33:15.323Z,98571.2
2022-09-25T11:38:50.475Z,98565.5
2022-09-25T11:44:26.695Z,98552.9
2022-09-25T11:50:02.081Z,98550.4
2022-09-25T11:55:44.280Z,98543.2
2022-09-25T12:01:19.798Z,98549
2022-09-25T12:06:55.452Z,98538.6
2022-09-25T12:12:30.305Z,98532.4
2022-09-25T12:18:05.254Z,98532.9
2022-09-25T12:23:40.298Z,98529.5
2022-09-25T12:29:25.128Z,98516.6
2022-09-25T12:34:59.996Z,98505.9
2022-09-25T12:40:35.774Z,98505
2022-09-25T12:46:12.758Z,98507.4
2022-09-25T12:51:54.861Z,98501
2022-09-25T12:57:31.032Z,98496.4
2022-09-25T13:03:07.214Z,98494
2022-09-25T13:08:43.117Z,98485.2
2022-09-25T13:14:18.098Z,98481.9
2022-09-25T13:19:54.351Z,98475.8
2022-09-25T13:25:29.353Z,98466.6
2022-09-25T13:31:10.439Z,98457.3
2022-09-25T13:36:47.081Z,98459.2
2022-09-25T13:42:23.077Z,98458.4
2022-09-25T13:48:08.164Z,98454.2
2022-09-25T13:53:44.294Z,98444.2
2022-09-25T13:59:19.625Z,98448.8
2022-09-25T14:04:54.976Z,98446.2
2022-09-25T14:10:29.985Z,98442
2022-09-25T14:16:05.436Z,98443.8
2022-09-25T14:21:41.574Z,98446.5
2022-09-25T14:27:16.608Z,98444.6
2022-09-25T14:32:57.005Z,98445.2
2022-09-25T14:38:32.500Z,98444
2022-09-25T14:44:11.296Z,98446.5
2022-09-25T14:49:47.109Z,98444.9
2022-09-25T14:55:22.122Z,98443.9
2022-09-25T15:00:57.099Z,98442.8
2022-09-25T15:06:32.365Z,98442.6
2022-09-25T15:12:08.690Z,98445.5
2022-09-25T15:17:43.938Z,98453.9
2022-09-25T15:23:19.287Z,98454
2022-09-25T15:28:54.047Z,98446
2022-09-25T15:34:29.035Z,98449.9
2022-09-25T15:40:04.187Z,98449.1
2022-09-25T15:45:40.456Z,98453.7
2022-09-25T15:51:17.169Z,98452.7
2022-09-25T15:56:52.368Z,98459.6
2022-09-25T16:02:28.252Z,98454.3
2022-09-25T16:08:03.516Z,98459.8
2022-09-25T16:14:00.030Z,98465.9
2022-09-25T16:19:32.753Z,98467
2022-09-25T16:25:07.740Z,98472.6
2022-09-25T16:30:43.604Z,98476.6
2022-09-25T16:36:19.139Z,98479.4
2022-09-25T16:41:54.084Z,98487.7
2022-09-25T16:47:28.872Z,98490.8
2022-09-25T16:53:03.626Z,98496.9
2022-09-25T16:58:38.468Z,98499.7
2022-09-25T17:04:13.764Z,98509.6
2022-09-25T17:09:48.487Z,98514.2
2022-09-25T17:15:23.698Z,98515.8
2022-09-25T17:20:58.626Z,98515
2022-09-25T17:26:33.348Z,98523.4
2022-09-25T17:32:08.058Z,98525.5
2022-09-25T17:37:42.857Z,98530.7
2022-09-25T17:43:18.192Z,98531.5
2022-09-25T17:48:55.456Z,98537.8
2022-09-25T17:54:31.167Z,98553.3
2022-09-25T18:00:08.156Z,98566.1
2022-09-25T18:05:43.307Z,98566.4
2022-09-25T18:11:18.587Z,98571.2
2022-09-25T18:16:53.775Z,98585.1
2022-09-25T18:22:28.632Z,98592.3
2022-09-25T18:28:03.869Z,98598.5
2022-09-25T18:33:40.329Z,98599.1
2022-09-25T18:39:23.891Z,98596.3
2022-09-25T18:45:05.297Z,98601.9
2022-09-25T18:50:40.308Z,98610
2022-09-25T18:56:14.821Z,98616.2
2022-09-25T19:01:51.629Z,98624
2022-09-25T19:07:29.506Z,98629.7
2022-09-25T19:13:26.484Z,98639
2022-09-25T19:19:00.115Z,98649.5
2022-09-25T19:24:34.953Z,98653.2
2022-09-25T19:30:09.812Z,98661.5
2022-09-25T19:35:44.683Z,98666.9
2022-09-25T19:41:20.449Z,98661.6
2022-09-25T19:46:56.395Z,98666.4
2022-09-25T19:52:30.980Z,98666.5
2022-09-25T19:58:07.207Z,98671
2022-09-25T20:03:41.981Z,98677.5
2022-09-25T20:10:01.928Z,98684.7
2022-09-25T20:15:38.503Z,98685
2022-09-25T20:21:21.793Z,98681.4
2022-09-25T20:26:57.094Z,98683.5
2022-09-25T20:32:33.186Z,98684.8
2022-09-25T20:38:07.552Z,98682.8
2022-09-25T20:43:42.302Z,98684.7
2022-09-25T20:49:17.281Z,98688.9
2022-09-25T20:54:52.326Z,98684.6
2022-09-25T21:00:28.086Z,98690.3
2022-09-25T21:06:10.038Z,98697.5
2022-09-25T21:11:44.808Z,98692.3
2022-09-25T21:17:20.816Z,98689.5
2022-09-25T21:22:55.773Z,98695.5
2022-09-25T21:28:30.768Z,98685.6
2022-09-25T21:34:06.026Z,98680.1
2022-09-25T21:39:41.148Z,98676.1
2022-09-25T21:45:16.309Z,98672.3
2022-09-25T21:50:52.007Z,98672.3
2022-09-25T21:56:26.985Z,98670.6
2022-09-25T22:02:02.033Z,98675.7
2022-09-25T22:07:36.805Z,98673.2
2022-09-25T22:13:33.602Z,98670.2
2022-09-25T22:19:06.646Z,98665.8
2022-09-25T22:24:42.073Z,98658.3
2022-09-25T22:30:18.335Z,98655.6
2022-09-25T22:35:53.530Z,98656.5
2022-09-25T22:41:29.609Z,98650.7
2022-09-25T22:47:04.879Z,98647.4
2022-09-25T22:52:39.531Z,98646.3
2022-09-25T22:58:14.430Z,98651.9
2022-09-25T23:03:51.023Z,98654
2022-09-25T23:09:28.428Z,98650.2
2022-09-25T23:15:03.507Z,98645.2
2022-09-25T23:20:38.807Z,98640.4
2022-09-25T23:26:14.436Z,98637.5
2022-09-25T23:31:49.416Z,98633
2022-09-25T23:37:24.787Z,98617.7
2022-09-25T23:42:59.870Z,98617.4
2022-09-25T23:48:35.270Z,98611.1
2022-09-25T23:54:10.077Z,98612.2
2022-09-25T23:59:45.432Z,98611.5
